sensor_id;sensor_type;location;lat;lon;timestamp;P1;durP1;ratioP1;P2;durP2;ratioP2
51800;SDS011;37855;53.204;6.568;2023-12-04T00:01:16;25.73;;;12.68;;
51800;SDS011;37855;53.204;6.568;2023-12-04T00:03:42;25.13;;;12.82;;
51800;SDS011;37855;53.204;6.568;2023-12-04T00:06:10;25.73;;;12.97;;
51800;SDS011;37855;53.204;6.568;2023-12-04T00:08:36;25.98;;;14.00;;
51800;SDS011;37855;53.204;6.568;2023-12-04T00:11:03;27.20;;;13.80;;
51800;SDS011;37855;53.204;6.568;2023-12-04T00:13:29;29.20;;;13.70;;
51800;SDS011;37855;53.204;6.568;2023-12-04T00:15:55;25.77;;;13.20;;
51800;SDS011;37855;53.204;6.568;2023-12-04T00:18:20;26.25;;;13.65;;
51800;SDS011;37855;53.204;6.568;2023-12-04T00:20:47;25.17;;;12.30;;
51800;SDS011;37855;53.204;6.568;2023-12-04T00:23:13;26.83;;;14.43;;
51800;SDS011;37855;53.204;6.568;2023-12-04T00:25:38;24.30;;;13.40;;
51800;SDS011;37855;53.204;6.568;2023-12-04T00:28:04;26.50;;;13.25;;
51800;SDS011;37855;53.204;6.568;2023-12-04T00:30:30;27.70;;;14.03;;
51800;SDS011;37855;53.204;6.568;2023-12-04T00:32:56;27.20;;;13.10;;
51800;SDS011;37855;53.204;6.568;2023-12-04T00:35:24;27.83;;;13.32;;
51800;SDS011;37855;53.204;6.568;2023-12-04T00:37:50;27.27;;;13.70;;
51800;SDS011;37855;53.204;6.568;2023-12-04T00:40:16;26.33;;;13.53;;
51800;SDS011;37855;53.204;6.568;2023-12-04T00:42:41;24.57;;;12.73;;
51800;SDS011;37855;53.204;6.568;2023-12-04T00:45:07;24.77;;;13.17;;
51800;SDS011;37855;53.204;6.568;2023-12-04T00:47:33;25.00;;;13.90;;
51800;SDS011;37855;53.204;6.568;2023-12-04T00:49:59;25.55;;;13.27;;
51800;SDS011;37855;53.204;6.568;2023-12-04T00:52:24;24.67;;;13.23;;
51800;SDS011;37855;53.204;6.568;2023-12-04T00:54:52;30.38;;;13.95;;
51800;SDS011;37855;53.204;6.568;2023-12-04T00:57:18;25.52;;;13.25;;
51800;SDS011;37855;53.204;6.568;2023-12-04T00:59:44;26.03;;;13.47;;
51800;SDS011;37855;53.204;6.568;2023-12-04T01:02:10;24.03;;;13.17;;
51800;SDS011;37855;53.204;6.568;2023-12-04T01:04:35;26.30;;;13.33;;
51800;SDS011;37855;53.204;6.568;2023-12-04T01:07:04;25.85;;;12.82;;
51800;SDS011;37855;53.204;6.568;2023-12-04T01:09:31;24.90;;;12.93;;
51800;SDS011;37855;53.204;6.568;2023-12-04T01:12:03;23.25;;;12.50;;
51800;SDS011;37855;53.204;6.568;2023-12-04T01:14:30;27.83;;;13.55;;
51800;SDS011;37855;53.204;6.568;2023-12-04T01:16:55;27.57;;;13.00;;
51800;SDS011;37855;53.204;6.568;2023-12-04T01:19:21;26.33;;;12.82;;
51800;SDS011;37855;53.204;6.568;2023-12-04T01:21:47;24.37;;;12.47;;
51800;SDS011;37855;53.204;6.568;2023-12-04T01:24:13;26.20;;;12.38;;
51800;SDS011;37855;53.204;6.568;2023-12-04T01:26:40;26.63;;;14.05;;
51800;SDS011;37855;53.204;6.568;2023-12-04T01:29:05;24.43;;;12.13;;
51800;SDS011;37855;53.204;6.568;2023-12-04T01:31:31;22.95;;;12.75;;
51800;SDS011;37855;53.204;6.568;2023-12-04T01:33:57;24.80;;;12.60;;
51800;SDS011;37855;53.204;6.568;2023-12-04T01:36:22;22.50;;;12.10;;
51800;SDS011;37855;53.204;6.568;2023-12-04T01:38:49;21.10;;;11.47;;
51800;SDS011;37855;53.204;6.568;2023-12-04T01:41:15;24.45;;;12.18;;
51800;SDS011;37855;53.204;6.568;2023-12-04T01:43:41;22.90;;;11.90;;
51800;SDS011;37855;53.204;6.568;2023-12-04T01:46:06;24.77;;;12.57;;
51800;SDS011;37855;53.204;6.568;2023-12-04T01:48:32;22.50;;;12.03;;
51800;SDS011;37855;53.204;6.568;2023-12-04T01:50:58;33.03;;;12.38;;
51800;SDS011;37855;53.204;6.568;2023-12-04T01:53:28;22.42;;;11.20;;
51800;SDS011;37855;53.204;6.568;2023-12-04T01:55:54;22.00;;;11.50;;
51800;SDS011;37855;53.204;6.568;2023-12-04T01:58:19;22.55;;;12.05;;
51800;SDS011;37855;53.204;6.568;2023-12-04T02:00:46;20.95;;;11.23;;
51800;SDS011;37855;53.204;6.568;2023-12-04T02:03:12;22.47;;;11.60;;
51800;SDS011;37855;53.204;6.568;2023-12-04T02:05:39;22.75;;;11.25;;
51800;SDS011;37855;53.204;6.568;2023-12-04T02:08:05;21.98;;;12.02;;
51800;SDS011;37855;53.204;6.568;2023-12-04T02:10:31;20.27;;;11.00;;
51800;SDS011;37855;53.204;6.568;2023-12-04T02:12:56;24.43;;;11.80;;
51800;SDS011;37855;53.204;6.568;2023-12-04T02:15:23;23.10;;;11.90;;
51800;SDS011;37855;53.204;6.568;2023-12-04T02:17:49;23.50;;;12.23;;
51800;SDS011;37855;53.204;6.568;2023-12-04T02:20:16;24.23;;;11.85;;
51800;SDS011;37855;53.204;6.568;2023-12-04T02:22:42;22.60;;;11.37;;
51800;SDS011;37855;53.204;6.568;2023-12-04T02:25:08;21.73;;;11.20;;
51800;SDS011;37855;53.204;6.568;2023-12-04T02:27:39;21.92;;;11.75;;
51800;SDS011;37855;53.204;6.568;2023-12-04T02:30:11;22.67;;;11.73;;
51800;SDS011;37855;53.204;6.568;2023-12-04T02:32:39;23.02;;;11.98;;
51800;SDS011;37855;53.204;6.568;2023-12-04T02:35:09;21.00;;;11.30;;
51800;SDS011;37855;53.204;6.568;2023-12-04T02:37:37;21.95;;;11.73;;
51800;SDS011;37855;53.204;6.568;2023-12-04T02:40:04;22.30;;;11.65;;
51800;SDS011;37855;53.204;6.568;2023-12-04T02:42:31;21.50;;;11.90;;
51800;SDS011;37855;53.204;6.568;2023-12-04T02:44:57;21.02;;;11.68;;
51800;SDS011;37855;53.204;6.568;2023-12-04T02:47:23;21.65;;;11.18;;
51800;SDS011;37855;53.204;6.568;2023-12-04T02:49:49;20.80;;;11.47;;
51800;SDS011;37855;53.204;6.568;2023-12-04T02:52:14;21.02;;;11.15;;
51800;SDS011;37855;53.204;6.568;2023-12-04T02:54:40;21.13;;;11.77;;
51800;SDS011;37855;53.204;6.568;2023-12-04T02:57:06;21.55;;;11.57;;
51800;SDS011;37855;53.204;6.568;2023-12-04T02:59:31;22.37;;;12.70;;
51800;SDS011;37855;53.204;6.568;2023-12-04T03:01:57;23.10;;;11.90;;
51800;SDS011;37855;53.204;6.568;2023-12-04T03:04:23;21.05;;;11.30;;
51800;SDS011;37855;53.204;6.568;2023-12-04T03:06:48;21.17;;;11.17;;
51800;SDS011;37855;53.204;6.568;2023-12-04T03:09:14;22.75;;;11.90;;
51800;SDS011;37855;53.204;6.568;2023-12-04T03:11:40;20.57;;;10.93;;
51800;SDS011;37855;53.204;6.568;2023-12-04T03:14:06;21.35;;;11.38;;
51800;SDS011;37855;53.204;6.568;2023-12-04T03:16:32;22.15;;;12.00;;
51800;SDS011;37855;53.204;6.568;2023-12-04T03:18:58;21.50;;;11.03;;
51800;SDS011;37855;53.204;6.568;2023-12-04T03:21:24;27.02;;;10.77;;
51800;SDS011;37855;53.204;6.568;2023-12-04T03:23:50;20.13;;;10.80;;
51800;SDS011;37855;53.204;6.568;2023-12-04T03:26:15;22.40;;;11.17;;
51800;SDS011;37855;53.204;6.568;2023-12-04T03:28:44;21.50;;;11.80;;
51800;SDS011;37855;53.204;6.568;2023-12-04T03:31:10;23.07;;;10.83;;
51800;SDS011;37855;53.204;6.568;2023-12-04T03:33:36;22.02;;;11.02;;
51800;SDS011;37855;53.204;6.568;2023-12-04T03:36:02;22.48;;;10.65;;
51800;SDS011;37855;53.204;6.568;2023-12-04T03:38:28;22.43;;;11.17;;
51800;SDS011;37855;53.204;6.568;2023-12-04T03:40:53;24.58;;;12.43;;
51800;SDS011;37855;53.204;6.568;2023-12-04T03:43:25;24.15;;;11.60;;
51800;SDS011;37855;53.204;6.568;2023-12-04T03:45:51;20.87;;;10.73;;
51800;SDS011;37855;53.204;6.568;2023-12-04T03:48:16;22.17;;;11.50;;
51800;SDS011;37855;53.204;6.568;2023-12-04T03:50:42;27.60;;;11.77;;
51800;SDS011;37855;53.204;6.568;2023-12-04T03:53:08;23.60;;;12.27;;
51800;SDS011;37855;53.204;6.568;2023-12-04T03:55:35;21.85;;;11.02;;
51800;SDS011;37855;53.204;6.568;2023-12-04T03:58:00;22.33;;;11.75;;
51800;SDS011;37855;53.204;6.568;2023-12-04T04:00:26;21.30;;;10.50;;
51800;SDS011;37855;53.204;6.568;2023-12-04T04:02:52;20.93;;;11.03;;
51800;SDS011;37855;53.204;6.568;2023-12-04T04:05:17;22.90;;;11.63;;
51800;SDS011;37855;53.204;6.568;2023-12-04T04:07:43;23.87;;;11.87;;
51800;SDS011;37855;53.204;6.568;2023-12-04T04:10:10;23.25;;;11.73;;
51800;SDS011;37855;53.204;6.568;2023-12-04T04:12:37;22.17;;;11.75;;
51800;SDS011;37855;53.204;6.568;2023-12-04T04:15:03;22.67;;;11.53;;
51800;SDS011;37855;53.204;6.568;2023-12-04T04:17:28;20.55;;;11.07;;
51800;SDS011;37855;53.204;6.568;2023-12-04T04:19:54;20.47;;;10.83;;
51800;SDS011;37855;53.204;6.568;2023-12-04T04:22:23;21.02;;;10.93;;
51800;SDS011;37855;53.204;6.568;2023-12-04T04:24:49;19.30;;;11.00;;
51800;SDS011;37855;53.204;6.568;2023-12-04T04:27:14;22.05;;;10.82;;
51800;SDS011;37855;53.204;6.568;2023-12-04T04:29:40;21.37;;;11.10;;
51800;SDS011;37855;53.204;6.568;2023-12-04T04:32:06;21.88;;;11.25;;
51800;SDS011;37855;53.204;6.568;2023-12-04T04:34:32;20.35;;;11.35;;
51800;SDS011;37855;53.204;6.568;2023-12-04T04:36:58;21.57;;;10.97;;
51800;SDS011;37855;53.204;6.568;2023-12-04T04:39:23;23.48;;;11.18;;
51800;SDS011;37855;53.204;6.568;2023-12-04T04:41:49;21.87;;;11.87;;
51800;SDS011;37855;53.204;6.568;2023-12-04T04:44:15;23.48;;;11.48;;
51800;SDS011;37855;53.204;6.568;2023-12-04T04:46:40;23.37;;;11.57;;
51800;SDS011;37855;53.204;6.568;2023-12-04T04:49:07;23.50;;;12.85;;
51800;SDS011;37855;53.204;6.568;2023-12-04T04:51:33;21.87;;;10.70;;
51800;SDS011;37855;53.204;6.568;2023-12-04T04:54:00;22.70;;;11.32;;
51800;SDS011;37855;53.204;6.568;2023-12-04T04:56:26;24.00;;;11.90;;
51800;SDS011;37855;53.204;6.568;2023-12-04T04:58:52;22.83;;;11.30;;
51800;SDS011;37855;53.204;6.568;2023-12-04T05:01:18;21.30;;;10.38;;
51800;SDS011;37855;53.204;6.568;2023-12-04T05:03:43;22.83;;;11.17;;
51800;SDS011;37855;53.204;6.568;2023-12-04T05:06:09;22.70;;;11.10;;
51800;SDS011;37855;53.204;6.568;2023-12-04T05:08:35;25.53;;;11.40;;
51800;SDS011;37855;53.204;6.568;2023-12-04T05:11:00;22.38;;;11.73;;
51800;SDS011;37855;53.204;6.568;2023-12-04T05:13:26;22.13;;;11.37;;
51800;SDS011;37855;53.204;6.568;2023-12-04T05:15:52;21.15;;;11.27;;
51800;SDS011;37855;53.204;6.568;2023-12-04T05:18:18;22.90;;;10.97;;
51800;SDS011;37855;53.204;6.568;2023-12-04T05:20:43;24.27;;;11.32;;
51800;SDS011;37855;53.204;6.568;2023-12-04T05:23:09;26.37;;;12.07;;
51800;SDS011;37855;53.204;6.568;2023-12-04T05:25:35;23.90;;;11.90;;
51800;SDS011;37855;53.204;6.568;2023-12-04T05:28:00;23.43;;;11.07;;
51800;SDS011;37855;53.204;6.568;2023-12-04T05:30:26;25.27;;;12.30;;
51800;SDS011;37855;53.204;6.568;2023-12-04T05:32:52;24.57;;;11.53;;
51800;SDS011;37855;53.204;6.568;2023-12-04T05:35:17;26.30;;;11.17;;
51800;SDS011;37855;53.204;6.568;2023-12-04T05:37:43;25.15;;;11.82;;
51800;SDS011;37855;53.204;6.568;2023-12-04T05:40:10;25.85;;;12.35;;
51800;SDS011;37855;53.204;6.568;2023-12-04T05:42:36;22.83;;;11.05;;
51800;SDS011;37855;53.204;6.568;2023-12-04T05:45:02;23.80;;;11.77;;
51800;SDS011;37855;53.204;6.568;2023-12-04T05:47:28;24.53;;;11.43;;
51800;SDS011;37855;53.204;6.568;2023-12-04T05:49:54;26.08;;;12.50;;
51800;SDS011;37855;53.204;6.568;2023-12-04T05:52:20;29.88;;;11.32;;
51800;SDS011;37855;53.204;6.568;2023-12-04T05:54:45;28.07;;;10.70;;
51800;SDS011;37855;53.204;6.568;2023-12-04T05:57:11;21.23;;;10.40;;
51800;SDS011;37855;53.204;6.568;2023-12-04T05:59:36;25.83;;;11.30;;
51800;SDS011;37855;53.204;6.568;2023-12-04T06:02:02;22.00;;;11.00;;
51800;SDS011;37855;53.204;6.568;2023-12-04T06:04:28;23.88;;;11.35;;
51800;SDS011;37855;53.204;6.568;2023-12-04T06:06:54;24.70;;;10.60;;
51800;SDS011;37855;53.204;6.568;2023-12-04T06:09:19;23.42;;;11.45;;
51800;SDS011;37855;53.204;6.568;2023-12-04T06:11:45;25.73;;;11.57;;
51800;SDS011;37855;53.204;6.568;2023-12-04T06:14:14;24.65;;;10.95;;
51800;SDS011;37855;53.204;6.568;2023-12-04T06:16:39;23.20;;;11.32;;
51800;SDS011;37855;53.204;6.568;2023-12-04T06:19:06;20.55;;;10.80;;
51800;SDS011;37855;53.204;6.568;2023-12-04T06:21:32;22.42;;;11.52;;
51800;SDS011;37855;53.204;6.568;2023-12-04T06:23:58;22.30;;;11.43;;
51800;SDS011;37855;53.204;6.568;2023-12-04T06:26:27;21.80;;;10.80;;
51800;SDS011;37855;53.204;6.568;2023-12-04T06:28:53;20.52;;;11.05;;
51800;SDS011;37855;53.204;6.568;2023-12-04T06:31:19;26.27;;;12.00;;
51800;SDS011;37855;53.204;6.568;2023-12-04T06:33:45;22.60;;;10.97;;
51800;SDS011;37855;53.204;6.568;2023-12-04T06:36:11;23.88;;;11.77;;
51800;SDS011;37855;53.204;6.568;2023-12-04T06:38:40;21.25;;;11.40;;
51800;SDS011;37855;53.204;6.568;2023-12-04T06:41:06;20.98;;;10.82;;
51800;SDS011;37855;53.204;6.568;2023-12-04T06:43:36;19.25;;;10.52;;
51800;SDS011;37855;53.204;6.568;2023-12-04T06:46:02;20.53;;;10.80;;
51800;SDS011;37855;53.204;6.568;2023-12-04T06:48:28;23.98;;;10.85;;
51800;SDS011;37855;53.204;6.568;2023-12-04T06:50:54;20.42;;;9.68;;
51800;SDS011;37855;53.204;6.568;2023-12-04T06:53:19;18.97;;;10.43;;
51800;SDS011;37855;53.204;6.568;2023-12-04T06:55:45;20.83;;;10.27;;
51800;SDS011;37855;53.204;6.568;2023-12-04T06:58:11;22.33;;;11.33;;
51800;SDS011;37855;53.204;6.568;2023-12-04T07:00:36;25.23;;;11.37;;
51800;SDS011;37855;53.204;6.568;2023-12-04T07:03:02;22.38;;;9.95;;
51800;SDS011;37855;53.204;6.568;2023-12-04T07:05:28;20.20;;;10.30;;
51800;SDS011;37855;53.204;6.568;2023-12-04T07:07:53;22.02;;;10.30;;
51800;SDS011;37855;53.204;6.568;2023-12-04T07:10:19;20.30;;;10.53;;
51800;SDS011;37855;53.204;6.568;2023-12-04T07:12:45;19.27;;;10.35;;
51800;SDS011;37855;53.204;6.568;2023-12-04T07:15:11;20.50;;;10.53;;
51800;SDS011;37855;53.204;6.568;2023-12-04T07:17:37;22.27;;;10.25;;
51800;SDS011;37855;53.204;6.568;2023-12-04T07:20:03;18.58;;;9.43;;
51800;SDS011;37855;53.204;6.568;2023-12-04T07:22:32;18.95;;;9.90;;
51800;SDS011;37855;53.204;6.568;2023-12-04T07:25:01;20.15;;;9.95;;
51800;SDS011;37855;53.204;6.568;2023-12-04T07:27:27;22.17;;;10.80;;
51800;SDS011;37855;53.204;6.568;2023-12-04T07:29:56;19.88;;;10.05;;
51800;SDS011;37855;53.204;6.568;2023-12-04T07:32:26;20.83;;;10.93;;
51800;SDS011;37855;53.204;6.568;2023-12-04T07:34:52;21.63;;;10.05;;
51800;SDS011;37855;53.204;6.568;2023-12-04T07:37:17;22.23;;;10.48;;
51800;SDS011;37855;53.204;6.568;2023-12-04T07:39:43;20.40;;;10.73;;
51800;SDS011;37855;53.204;6.568;2023-12-04T07:42:11;21.40;;;11.32;;
51800;SDS011;37855;53.204;6.568;2023-12-04T07:44:37;21.92;;;11.10;;
51800;SDS011;37855;53.204;6.568;2023-12-04T07:47:03;20.13;;;9.73;;
51800;SDS011;37855;53.204;6.568;2023-12-04T07:49:28;19.65;;;10.32;;
51800;SDS011;37855;53.204;6.568;2023-12-04T07:51:54;18.50;;;10.60;;
51800;SDS011;37855;53.204;6.568;2023-12-04T07:54:20;20.15;;;10.77;;
51800;SDS011;37855;53.204;6.568;2023-12-04T07:56:47;20.27;;;10.45;;
51800;SDS011;37855;53.204;6.568;2023-12-04T07:59:13;20.00;;;10.07;;
51800;SDS011;37855;53.204;6.568;2023-12-04T08:01:38;17.30;;;9.67;;
51800;SDS011;37855;53.204;6.568;2023-12-04T08:04:04;19.00;;;9.43;;
51800;SDS011;37855;53.204;6.568;2023-12-04T08:06:31;19.27;;;9.88;;
51800;SDS011;37855;53.204;6.568;2023-12-04T08:08:59;19.43;;;10.33;;
51800;SDS011;37855;53.204;6.568;2023-12-04T08:11:27;20.75;;;10.20;;
51800;SDS011;37855;53.204;6.568;2023-12-04T08:13:53;21.38;;;10.18;;
51800;SDS011;37855;53.204;6.568;2023-12-04T08:16:19;17.87;;;9.73;;
51800;SDS011;37855;53.204;6.568;2023-12-04T08:18:45;19.33;;;10.40;;
51800;SDS011;37855;53.204;6.568;2023-12-04T08:21:11;17.88;;;9.30;;
51800;SDS011;37855;53.204;6.568;2023-12-04T08:23:38;17.07;;;9.23;;
51800;SDS011;37855;53.204;6.568;2023-12-04T08:26:03;19.77;;;9.27;;
51800;SDS011;37855;53.204;6.568;2023-12-04T08:28:29;20.20;;;9.70;;
51800;SDS011;37855;53.204;6.568;2023-12-04T08:30:56;20.98;;;9.68;;
51800;SDS011;37855;53.204;6.568;2023-12-04T08:33:21;17.90;;;8.93;;
51800;SDS011;37855;53.204;6.568;2023-12-04T08:35:47;20.43;;;9.90;;
51800;SDS011;37855;53.204;6.568;2023-12-04T08:38:12;16.58;;;9.13;;
51800;SDS011;37855;53.204;6.568;2023-12-04T08:40:38;18.15;;;9.55;;
51800;SDS011;37855;53.204;6.568;2023-12-04T08:43:06;18.58;;;8.65;;
51800;SDS011;37855;53.204;6.568;2023-12-04T08:45:31;17.95;;;9.15;;
51800;SDS011;37855;53.204;6.568;2023-12-04T08:47:58;16.43;;;8.07;;
51800;SDS011;37855;53.204;6.568;2023-12-04T08:50:24;15.85;;;8.45;;
51800;SDS011;37855;53.204;6.568;2023-12-04T08:52:50;16.17;;;8.70;;
51800;SDS011;37855;53.204;6.568;2023-12-04T08:55:17;18.00;;;9.10;;
51800;SDS011;37855;53.204;6.568;2023-12-04T08:57:44;17.33;;;9.02;;
51800;SDS011;37855;53.204;6.568;2023-12-04T09:00:09;18.45;;;8.40;;
51800;SDS011;37855;53.204;6.568;2023-12-04T09:02:38;14.90;;;8.25;;
51800;SDS011;37855;53.204;6.568;2023-12-04T09:05:04;16.73;;;8.63;;
51800;SDS011;37855;53.204;6.568;2023-12-04T09:07:30;18.13;;;9.10;;
51800;SDS011;37855;53.204;6.568;2023-12-04T09:09:56;18.63;;;8.87;;
51800;SDS011;37855;53.204;6.568;2023-12-04T09:12:22;15.45;;;8.20;;
51800;SDS011;37855;53.204;6.568;2023-12-04T09:14:48;17.00;;;9.53;;
51800;SDS011;37855;53.204;6.568;2023-12-04T09:17:13;15.73;;;8.75;;
51800;SDS011;37855;53.204;6.568;2023-12-04T09:19:41;15.43;;;8.47;;
51800;SDS011;37855;53.204;6.568;2023-12-04T09:22:07;17.10;;;7.95;;
51800;SDS011;37855;53.204;6.568;2023-12-04T09:24:33;16.27;;;8.25;;
51800;SDS011;37855;53.204;6.568;2023-12-04T09:26:59;17.57;;;8.67;;
51800;SDS011;37855;53.204;6.568;2023-12-04T09:29:25;16.25;;;7.80;;
51800;SDS011;37855;53.204;6.568;2023-12-04T09:31:51;16.13;;;8.60;;
51800;SDS011;37855;53.204;6.568;2023-12-04T09:34:17;15.13;;;7.60;;
51800;SDS011;37855;53.204;6.568;2023-12-04T09:36:43;14.20;;;7.97;;
51800;SDS011;37855;53.204;6.568;2023-12-04T09:39:08;16.20;;;8.17;;
51800;SDS011;37855;53.204;6.568;2023-12-04T09:41:35;15.43;;;8.38;;
51800;SDS011;37855;53.204;6.568;2023-12-04T09:44:05;15.23;;;8.57;;
51800;SDS011;37855;53.204;6.568;2023-12-04T09:46:35;14.55;;;7.80;;
51800;SDS011;37855;53.204;6.568;2023-12-04T09:49:01;14.40;;;7.88;;
51800;SDS011;37855;53.204;6.568;2023-12-04T09:51:29;14.43;;;8.00;;
51800;SDS011;37855;53.204;6.568;2023-12-04T09:53:55;14.00;;;7.45;;
51800;SDS011;37855;53.204;6.568;2023-12-04T09:56:22;12.88;;;7.78;;
51800;SDS011;37855;53.204;6.568;2023-12-04T09:58:51;13.13;;;6.93;;
51800;SDS011;37855;53.204;6.568;2023-12-04T10:01:22;15.52;;;7.55;;
51800;SDS011;37855;53.204;6.568;2023-12-04T10:03:48;12.95;;;6.95;;
51800;SDS011;37855;53.204;6.568;2023-12-04T10:06:15;15.20;;;7.28;;
51800;SDS011;37855;53.204;6.568;2023-12-04T10:08:44;15.25;;;7.57;;
51800;SDS011;37855;53.204;6.568;2023-12-04T10:11:11;13.00;;;7.27;;
51800;SDS011;37855;53.204;6.568;2023-12-04T10:13:40;14.05;;;7.57;;
51800;SDS011;37855;53.204;6.568;2023-12-04T10:16:06;13.85;;;7.40;;
51800;SDS011;37855;53.204;6.568;2023-12-04T10:18:32;15.20;;;7.45;;
51800;SDS011;37855;53.204;6.568;2023-12-04T10:20:59;14.40;;;7.95;;
51800;SDS011;37855;53.204;6.568;2023-12-04T10:23:40;16.53;;;7.60;;
51800;SDS011;37855;53.204;6.568;2023-12-04T10:26:07;15.65;;;7.78;;
51800;SDS011;37855;53.204;6.568;2023-12-04T10:28:34;14.15;;;8.40;;
51800;SDS011;37855;53.204;6.568;2023-12-04T10:31:00;12.90;;;7.47;;
51800;SDS011;37855;53.204;6.568;2023-12-04T10:33:30;13.90;;;8.00;;
51800;SDS011;37855;53.204;6.568;2023-12-04T10:35:56;15.87;;;7.57;;
51800;SDS011;37855;53.204;6.568;2023-12-04T10:38:22;14.85;;;7.57;;
51800;SDS011;37855;53.204;6.568;2023-12-04T10:40:48;15.70;;;8.00;;
51800;SDS011;37855;53.204;6.568;2023-12-04T10:43:21;13.32;;;7.28;;
51800;SDS011;37855;53.204;6.568;2023-12-04T10:45:49;14.25;;;7.57;;
51800;SDS011;37855;53.204;6.568;2023-12-04T10:48:16;15.10;;;7.78;;
51800;SDS011;37855;53.204;6.568;2023-12-04T10:50:44;14.80;;;7.30;;
51800;SDS011;37855;53.204;6.568;2023-12-04T10:53:12;12.82;;;7.50;;
51800;SDS011;37855;53.204;6.568;2023-12-04T10:55:39;13.95;;;7.22;;
51800;SDS011;37855;53.204;6.568;2023-12-04T10:58:06;13.68;;;7.57;;
51800;SDS011;37855;53.204;6.568;2023-12-04T11:00:35;14.65;;;7.53;;
51800;SDS011;37855;53.204;6.568;2023-12-04T11:03:09;14.93;;;7.37;;
51800;SDS011;37855;53.204;6.568;2023-12-04T11:05:39;13.68;;;7.38;;
51800;SDS011;37855;53.204;6.568;2023-12-04T11:08:06;15.00;;;7.30;;
51800;SDS011;37855;53.204;6.568;2023-12-04T11:10:41;12.85;;;7.00;;
51800;SDS011;37855;53.204;6.568;2023-12-04T11:13:14;13.88;;;7.32;;
51800;SDS011;37855;53.204;6.568;2023-12-04T11:15:45;13.07;;;7.27;;
51800;SDS011;37855;53.204;6.568;2023-12-04T11:18:15;13.02;;;6.70;;
51800;SDS011;37855;53.204;6.568;2023-12-04T11:20:56;12.52;;;6.78;;
51800;SDS011;37855;53.204;6.568;2023-12-04T11:23:24;12.18;;;6.82;;
51800;SDS011;37855;53.204;6.568;2023-12-04T11:25:51;13.13;;;7.28;;
51800;SDS011;37855;53.204;6.568;2023-12-04T11:28:18;13.20;;;6.77;;
51800;SDS011;37855;53.204;6.568;2023-12-04T11:30:45;12.82;;;7.10;;
51800;SDS011;37855;53.204;6.568;2023-12-04T11:33:11;16.08;;;7.40;;
51800;SDS011;37855;53.204;6.568;2023-12-04T11:35:37;12.03;;;6.77;;
51800;SDS011;37855;53.204;6.568;2023-12-04T11:38:04;12.63;;;6.53;;
51800;SDS011;37855;53.204;6.568;2023-12-04T11:40:32;11.85;;;6.85;;
51800;SDS011;37855;53.204;6.568;2023-12-04T11:42:58;13.33;;;6.97;;
51800;SDS011;37855;53.204;6.568;2023-12-04T11:45:23;12.70;;;6.78;;
51800;SDS011;37855;53.204;6.568;2023-12-04T11:47:56;11.07;;;6.43;;
51800;SDS011;37855;53.204;6.568;2023-12-04T11:50:25;12.13;;;6.28;;
51800;SDS011;37855;53.204;6.568;2023-12-04T11:52:52;11.13;;;6.30;;
51800;SDS011;37855;53.204;6.568;2023-12-04T11:55:21;12.93;;;6.77;;
51800;SDS011;37855;53.204;6.568;2023-12-04T11:57:49;11.65;;;6.95;;
51800;SDS011;37855;53.204;6.568;2023-12-04T12:02:46;13.23;;;6.85;;
51800;SDS011;37855;53.204;6.568;2023-12-04T12:05:18;12.95;;;6.60;;
51800;SDS011;37855;53.204;6.568;2023-12-04T12:07:44;11.40;;;6.23;;
51800;SDS011;37855;53.204;6.568;2023-12-04T12:10:11;12.15;;;6.50;;
51800;SDS011;37855;53.204;6.568;2023-12-04T12:12:39;11.75;;;6.47;;
51800;SDS011;37855;53.204;6.568;2023-12-04T12:15:15;12.75;;;6.43;;
51800;SDS011;37855;53.204;6.568;2023-12-04T12:17:41;12.48;;;6.95;;
51800;SDS011;37855;53.204;6.568;2023-12-04T12:20:07;11.53;;;6.53;;
51800;SDS011;37855;53.204;6.568;2023-12-04T12:22:35;12.15;;;6.50;;
51800;SDS011;37855;53.204;6.568;2023-12-04T12:25:06;12.55;;;6.97;;
51800;SDS011;37855;53.204;6.568;2023-12-04T12:27:32;12.55;;;6.88;;
51800;SDS011;37855;53.204;6.568;2023-12-04T12:29:59;11.80;;;7.03;;
51800;SDS011;37855;53.204;6.568;2023-12-04T12:32:25;12.63;;;6.93;;
51800;SDS011;37855;53.204;6.568;2023-12-04T12:34:52;11.90;;;6.05;;
51800;SDS011;37855;53.204;6.568;2023-12-04T12:37:19;12.05;;;6.20;;
51800;SDS011;37855;53.204;6.568;2023-12-04T12:39:45;13.05;;;6.53;;
51800;SDS011;37855;53.204;6.568;2023-12-04T12:42:11;12.47;;;6.97;;
51800;SDS011;37855;53.204;6.568;2023-12-04T12:44:45;13.75;;;7.40;;
51800;SDS011;37855;53.204;6.568;2023-12-04T12:47:10;11.73;;;6.73;;
51800;SDS011;37855;53.204;6.568;2023-12-04T12:49:39;12.05;;;6.53;;
51800;SDS011;37855;53.204;6.568;2023-12-04T12:52:05;12.95;;;6.45;;
51800;SDS011;37855;53.204;6.568;2023-12-04T12:54:36;14.02;;;7.35;;
51800;SDS011;37855;53.204;6.568;2023-12-04T12:57:10;12.53;;;7.20;;
51800;SDS011;37855;53.204;6.568;2023-12-04T12:59:40;12.40;;;7.15;;
51800;SDS011;37855;53.204;6.568;2023-12-04T13:02:06;12.85;;;7.28;;
51800;SDS011;37855;53.204;6.568;2023-12-04T13:07:01;12.57;;;6.63;;
51800;SDS011;37855;53.204;6.568;2023-12-04T13:09:28;12.20;;;6.60;;
51800;SDS011;37855;53.204;6.568;2023-12-04T13:11:53;11.80;;;6.35;;
51800;SDS011;37855;53.204;6.568;2023-12-04T13:14:20;13.82;;;7.35;;
51800;SDS011;37855;53.204;6.568;2023-12-04T13:16:45;12.10;;;6.80;;
51800;SDS011;37855;53.204;6.568;2023-12-04T13:19:11;13.18;;;7.40;;
51800;SDS011;37855;53.204;6.568;2023-12-04T13:21:37;13.67;;;6.63;;
51800;SDS011;37855;53.204;6.568;2023-12-04T13:24:02;10.90;;;6.40;;
51800;SDS011;37855;53.204;6.568;2023-12-04T13:26:32;12.05;;;6.55;;
51800;SDS011;37855;53.204;6.568;2023-12-04T13:28:58;12.07;;;6.95;;
51800;SDS011;37855;53.204;6.568;2023-12-04T13:31:24;13.55;;;7.05;;
51800;SDS011;37855;53.204;6.568;2023-12-04T13:33:50;12.63;;;6.67;;
51800;SDS011;37855;53.204;6.568;2023-12-04T13:36:15;11.52;;;6.75;;
51800;SDS011;37855;53.204;6.568;2023-12-04T13:38:42;12.87;;;7.20;;
51800;SDS011;37855;53.204;6.568;2023-12-04T13:41:08;14.27;;;7.43;;
51800;SDS011;37855;53.204;6.568;2023-12-04T13:43:55;12.10;;;6.60;;
51800;SDS011;37855;53.204;6.568;2023-12-04T13:46:24;11.75;;;7.13;;
51800;SDS011;37855;53.204;6.568;2023-12-04T13:48:52;12.27;;;6.90;;
51800;SDS011;37855;53.204;6.568;2023-12-04T13:51:17;12.30;;;6.75;;
51800;SDS011;37855;53.204;6.568;2023-12-04T13:53:44;12.05;;;6.50;;
51800;SDS011;37855;53.204;6.568;2023-12-04T13:56:14;11.77;;;6.30;;
51800;SDS011;37855;53.204;6.568;2023-12-04T13:58:46;12.43;;;6.45;;
51800;SDS011;37855;53.204;6.568;2023-12-04T14:01:14;13.38;;;7.28;;
51800;SDS011;37855;53.204;6.568;2023-12-04T14:03:47;11.63;;;6.50;;
51800;SDS011;37855;53.204;6.568;2023-12-04T14:06:13;12.23;;;7.45;;
51800;SDS011;37855;53.204;6.568;2023-12-04T14:08:40;13.60;;;7.20;;
51800;SDS011;37855;53.204;6.568;2023-12-04T14:11:07;11.40;;;6.78;;
51800;SDS011;37855;53.204;6.568;2023-12-04T14:13:32;12.95;;;6.70;;
51800;SDS011;37855;53.204;6.568;2023-12-04T14:15:58;11.65;;;6.60;;
51800;SDS011;37855;53.204;6.568;2023-12-04T14:18:25;11.70;;;6.97;;
51800;SDS011;37855;53.204;6.568;2023-12-04T14:20:51;11.35;;;6.22;;
51800;SDS011;37855;53.204;6.568;2023-12-04T14:23:17;11.23;;;6.47;;
51800;SDS011;37855;53.204;6.568;2023-12-04T14:25:44;12.30;;;7.13;;
51800;SDS011;37855;53.204;6.568;2023-12-04T14:28:13;13.80;;;7.20;;
51800;SDS011;37855;53.204;6.568;2023-12-04T14:30:39;13.23;;;6.57;;